sensor_id;sensor_type;location;lat;lon;timestamp;P1;durP1;ratioP1;P2;durP2;ratioP2
34643;SDS011;26931;43.498;-1.506;2022-10-23T00:01:38;0.98;;;0.73;;
34643;SDS011;26931;43.498;-1.506;2022-10-23T00:04:07;0.90;;;0.90;;
34643;SDS011;26931;43.498;-1.506;2022-10-23T00:06:40;1.55;;;0.80;;
34643;SDS011;26931;43.498;-1.506;2022-10-23T00:09:07;3.08;;;0.90;;
34643;SDS011;26931;43.498;-1.506;2022-10-23T00:11:36;0.80;;;0.80;;
34643;SDS011;26931;43.498;-1.506;2022-10-23T00:14:04;1.00;;;0.90;;
34643;SDS011;26931;43.498;-1.506;2022-10-23T00:16:31;2.28;;;0.85;;
34643;SDS011;26931;43.498;-1.506;2022-10-23T00:18:58;1.38;;;0.70;;
34643;SDS011;26931;43.498;-1.506;2022-10-23T00:21:24;2.47;;;1.02;;
34643;SDS011;26931;43.498;-1.506;2022-10-23T00:23:50;2.22;;;0.85;;
34643;SDS011;26931;43.498;-1.506;2022-10-23T00:26:17;2.47;;;0.90;;
34643;SDS011;26931;43.498;-1.506;2022-10-23T00:28:45;1.50;;;1.00;;
34643;SDS011;26931;43.498;-1.506;2022-10-23T00:31:14;2.65;;;0.90;;
34643;SDS011;26931;43.498;-1.506;2022-10-23T00:33:41;2.50;;;1.10;;
34643;SDS011;26931;43.498;-1.506;2022-10-23T00:36:08;1.40;;;0.95;;
34643;SDS011;26931;43.498;-1.506;2022-10-23T00:38:36;1.00;;;0.80;;
34643;SDS011;26931;43.498;-1.506;2022-10-23T00:41:03;2.78;;;1.10;;
34643;SDS011;26931;43.498;-1.506;2022-10-23T00:43:30;2.28;;;1.05;;
34643;SDS011;26931;43.498;-1.506;2022-10-23T00:45:56;2.28;;;1.10;;
34643;SDS011;26931;43.498;-1.506;2022-10-23T00:48:24;1.95;;;1.00;;
34643;SDS011;26931;43.498;-1.506;2022-10-23T00:50:51;4.35;;;1.35;;
34643;SDS011;26931;43.498;-1.506;2022-10-23T00:53:18;2.75;;;1.40;;
34643;SDS011;26931;43.498;-1.506;2022-10-23T00:55:46;2.08;;;1.50;;
34643;SDS011;26931;43.498;-1.506;2022-10-23T00:58:16;6.25;;;1.60;;
34643;SDS011;26931;43.498;-1.506;2022-10-23T01:00:45;3.30;;;1.60;;
34643;SDS011;26931;43.498;-1.506;2022-10-23T01:03:15;5.53;;;1.40;;
34643;SDS011;26931;43.498;-1.506;2022-10-23T01:08:22;2.97;;;1.27;;
34643;SDS011;26931;43.498;-1.506;2022-10-23T01:10:57;4.22;;;1.65;;
34643;SDS011;26931;43.498;-1.506;2022-10-23T01:16:13;3.53;;;1.40;;
34643;SDS011;26931;43.498;-1.506;2022-10-23T01:18:49;5.13;;;1.80;;
34643;SDS011;26931;43.498;-1.506;2022-10-23T01:26:56;3.30;;;1.50;;
34643;SDS011;26931;43.498;-1.506;2022-10-23T01:29:47;4.32;;;1.85;;
34643;SDS011;26931;43.498;-1.506;2022-10-23T01:32:38;4.65;;;1.80;;
34643;SDS011;26931;43.498;-1.506;2022-10-23T01:35:17;4.30;;;1.63;;
34643;SDS011;26931;43.498;-1.506;2022-10-23T01:38:00;3.10;;;1.73;;
34643;SDS011;26931;43.498;-1.506;2022-10-23T01:40:33;5.75;;;1.83;;
34643;SDS011;26931;43.498;-1.506;2022-10-23T01:43:01;7.70;;;2.00;;
34643;SDS011;26931;43.498;-1.506;2022-10-23T01:45:46;8.48;;;1.92;;
34643;SDS011;26931;43.498;-1.506;2022-10-23T01:48:18;5.47;;;1.95;;
34643;SDS011;26931;43.498;-1.506;2022-10-23T01:50:50;6.57;;;2.00;;
34643;SDS011;26931;43.498;-1.506;2022-10-23T01:53:19;8.20;;;2.05;;
34643;SDS011;26931;43.498;-1.506;2022-10-23T01:55:47;3.25;;;1.95;;
34643;SDS011;26931;43.498;-1.506;2022-10-23T01:58:15;7.05;;;2.47;;
34643;SDS011;26931;43.498;-1.506;2022-10-23T02:00:45;7.10;;;2.13;;
34643;SDS011;26931;43.498;-1.506;2022-10-23T02:03:12;8.90;;;2.20;;
34643;SDS011;26931;43.498;-1.506;2022-10-23T02:05:42;3.47;;;1.80;;
34643;SDS011;26931;43.498;-1.506;2022-10-23T02:08:08;4.25;;;1.88;;
34643;SDS011;26931;43.498;-1.506;2022-10-23T02:13:37;7.43;;;2.40;;
34643;SDS011;26931;43.498;-1.506;2022-10-23T02:19:23;6.00;;;1.90;;
34643;SDS011;26931;43.498;-1.506;2022-10-23T02:21:46;6.82;;;2.22;;
34643;SDS011;26931;43.498;-1.506;2022-10-23T02:24:37;8.52;;;2.10;;
34643;SDS011;26931;43.498;-1.506;2022-10-23T02:27:14;7.13;;;2.08;;
34643;SDS011;26931;43.498;-1.506;2022-10-23T02:29:45;4.90;;;1.92;;
34643;SDS011;26931;43.498;-1.506;2022-10-23T02:32:16;9.77;;;2.28;;
34643;SDS011;26931;43.498;-1.506;2022-10-23T02:34:45;7.38;;;2.15;;
34643;SDS011;26931;43.498;-1.506;2022-10-23T02:37:11;10.07;;;2.65;;
34643;SDS011;26931;43.498;-1.506;2022-10-23T02:39:38;8.05;;;2.10;;
34643;SDS011;26931;43.498;-1.506;2022-10-23T02:42:13;9.95;;;2.50;;
34643;SDS011;26931;43.498;-1.506;2022-10-23T02:50:15;6.88;;;2.22;;
34643;SDS011;26931;43.498;-1.506;2022-10-23T03:00:52;7.80;;;2.13;;
34643;SDS011;26931;43.498;-1.506;2022-10-23T03:03:34;4.75;;;1.70;;
34643;SDS011;26931;43.498;-1.506;2022-10-23T03:06:04;6.50;;;2.22;;
34643;SDS011;26931;43.498;-1.506;2022-10-23T03:08:39;7.75;;;2.00;;
34643;SDS011;26931;43.498;-1.506;2022-10-23T03:11:19;6.93;;;2.25;;
34643;SDS011;26931;43.498;-1.506;2022-10-23T03:13:45;5.55;;;1.95;;
34643;SDS011;26931;43.498;-1.506;2022-10-23T03:16:11;4.18;;;1.83;;
34643;SDS011;26931;43.498;-1.506;2022-10-23T03:18:37;3.95;;;1.90;;
34643;SDS011;26931;43.498;-1.506;2022-10-23T03:21:03;7.65;;;2.20;;
34643;SDS011;26931;43.498;-1.506;2022-10-23T03:23:29;4.90;;;1.60;;
34643;SDS011;26931;43.498;-1.506;2022-10-23T03:25:55;8.45;;;2.45;;
34643;SDS011;26931;43.498;-1.506;2022-10-23T03:28:21;6.78;;;2.22;;
34643;SDS011;26931;43.498;-1.506;2022-10-23T03:30:48;3.60;;;1.73;;
34643;SDS011;26931;43.498;-1.506;2022-10-23T03:33:14;6.15;;;1.80;;
34643;SDS011;26931;43.498;-1.506;2022-10-23T03:35:40;6.85;;;1.80;;
34643;SDS011;26931;43.498;-1.506;2022-10-23T03:38:06;2.92;;;1.63;;
34643;SDS011;26931;43.498;-1.506;2022-10-23T03:40:32;5.45;;;1.80;;
34643;SDS011;26931;43.498;-1.506;2022-10-23T03:42:58;5.88;;;1.95;;
34643;SDS011;26931;43.498;-1.506;2022-10-23T03:45:24;4.72;;;1.52;;
34643;SDS011;26931;43.498;-1.506;2022-10-23T03:47:50;4.00;;;1.92;;
34643;SDS011;26931;43.498;-1.506;2022-10-23T03:50:17;8.25;;;2.00;;
34643;SDS011;26931;43.498;-1.506;2022-10-23T03:52:43;4.18;;;1.67;;
34643;SDS011;26931;43.498;-1.506;2022-10-23T03:55:10;3.33;;;1.38;;
34643;SDS011;26931;43.498;-1.506;2022-10-23T03:57:36;5.00;;;1.77;;
34643;SDS011;26931;43.498;-1.506;2022-10-23T04:00:03;3.83;;;1.63;;
34643;SDS011;26931;43.498;-1.506;2022-10-23T04:02:30;3.00;;;1.40;;
34643;SDS011;26931;43.498;-1.506;2022-10-23T04:04:56;2.97;;;1.52;;
34643;SDS011;26931;43.498;-1.506;2022-10-23T04:07:23;7.30;;;2.17;;
34643;SDS011;26931;43.498;-1.506;2022-10-23T04:09:49;2.53;;;1.52;;
34643;SDS011;26931;43.498;-1.506;2022-10-23T04:12:15;4.10;;;1.60;;
34643;SDS011;26931;43.498;-1.506;2022-10-23T04:14:41;4.88;;;1.50;;
34643;SDS011;26931;43.498;-1.506;2022-10-23T04:17:07;5.35;;;1.60;;
34643;SDS011;26931;43.498;-1.506;2022-10-23T04:19:33;1.88;;;1.67;;
34643;SDS011;26931;43.498;-1.506;2022-10-23T04:21:59;3.92;;;1.65;;
34643;SDS011;26931;43.498;-1.506;2022-10-23T04:24:25;4.22;;;1.20;;
34643;SDS011;26931;43.498;-1.506;2022-10-23T04:26:51;3.33;;;1.38;;
34643;SDS011;26931;43.498;-1.506;2022-10-23T04:29:17;5.13;;;1.90;;
34643;SDS011;26931;43.498;-1.506;2022-10-23T04:31:46;3.47;;;1.77;;
34643;SDS011;26931;43.498;-1.506;2022-10-23T04:34:13;3.85;;;1.75;;
34643;SDS011;26931;43.498;-1.506;2022-10-23T04:36:39;3.63;;;1.60;;
34643;SDS011;26931;43.498;-1.506;2022-10-23T04:39:05;8.10;;;2.10;;
34643;SDS011;26931;43.498;-1.506;2022-10-23T04:41:31;4.88;;;1.90;;
34643;SDS011;26931;43.498;-1.506;2022-10-23T04:43:57;2.92;;;1.60;;
34643;SDS011;26931;43.498;-1.506;2022-10-23T04:46:23;4.55;;;1.67;;
34643;SDS011;26931;43.498;-1.506;2022-10-23T04:48:49;5.15;;;1.65;;
34643;SDS011;26931;43.498;-1.506;2022-10-23T04:51:15;5.75;;;1.55;;
34643;SDS011;26931;43.498;-1.506;2022-10-23T04:53:41;4.70;;;2.38;;
34643;SDS011;26931;43.498;-1.506;2022-10-23T04:56:10;7.47;;;2.00;;
34643;SDS011;26931;43.498;-1.506;2022-10-23T04:58:39;5.35;;;2.03;;
34643;SDS011;26931;43.498;-1.506;2022-10-23T05:01:05;4.72;;;1.73;;
34643;SDS011;26931;43.498;-1.506;2022-10-23T05:03:34;7.57;;;2.05;;
34643;SDS011;26931;43.498;-1.506;2022-10-23T05:06:01;2.67;;;1.60;;
34643;SDS011;26931;43.498;-1.506;2022-10-23T05:08:28;4.70;;;1.75;;
34643;SDS011;26931;43.498;-1.506;2022-10-23T05:10:54;3.58;;;2.00;;
34643;SDS011;26931;43.498;-1.506;2022-10-23T05:13:20;5.75;;;2.28;;
34643;SDS011;26931;43.498;-1.506;2022-10-23T05:15:48;8.18;;;2.38;;
34643;SDS011;26931;43.498;-1.506;2022-10-23T05:18:17;6.03;;;2.13;;
34643;SDS011;26931;43.498;-1.506;2022-10-23T05:21:02;5.15;;;1.85;;
34643;SDS011;26931;43.498;-1.506;2022-10-23T05:23:34;6.35;;;1.92;;
34643;SDS011;26931;43.498;-1.506;2022-10-23T05:26:03;5.95;;;1.65;;
34643;SDS011;26931;43.498;-1.506;2022-10-23T05:28:29;6.57;;;1.98;;
34643;SDS011;26931;43.498;-1.506;2022-10-23T05:30:56;6.72;;;1.90;;
34643;SDS011;26931;43.498;-1.506;2022-10-23T05:33:24;6.72;;;1.83;;
34643;SDS011;26931;43.498;-1.506;2022-10-23T05:35:51;7.53;;;2.20;;
34643;SDS011;26931;43.498;-1.506;2022-10-23T05:38:17;4.88;;;2.13;;
34643;SDS011;26931;43.498;-1.506;2022-10-23T05:40:43;11.75;;;2.25;;
34643;SDS011;26931;43.498;-1.506;2022-10-23T05:43:09;4.38;;;2.40;;
34643;SDS011;26931;43.498;-1.506;2022-10-23T05:45:35;6.35;;;2.00;;
34643;SDS011;26931;43.498;-1.506;2022-10-23T05:48:01;7.47;;;2.53;;
34643;SDS011;26931;43.498;-1.506;2022-10-23T05:50:28;6.35;;;1.80;;
34643;SDS011;26931;43.498;-1.506;2022-10-23T05:52:53;6.28;;;1.92;;
34643;SDS011;26931;43.498;-1.506;2022-10-23T05:55:20;3.65;;;1.95;;
34643;SDS011;26931;43.498;-1.506;2022-10-23T05:57:46;8.38;;;1.83;;
34643;SDS011;26931;43.498;-1.506;2022-10-23T06:00:12;5.47;;;1.98;;
34643;SDS011;26931;43.498;-1.506;2022-10-23T06:02:38;5.80;;;2.17;;
34643;SDS011;26931;43.498;-1.506;2022-10-23T06:05:04;4.15;;;1.83;;
34643;SDS011;26931;43.498;-1.506;2022-10-23T06:07:30;5.57;;;2.25;;
34643;SDS011;26931;43.498;-1.506;2022-10-23T06:09:56;7.32;;;2.22;;
34643;SDS011;26931;43.498;-1.506;2022-10-23T06:12:25;3.30;;;1.85;;
34643;SDS011;26931;43.498;-1.506;2022-10-23T06:14:51;4.28;;;1.80;;
34643;SDS011;26931;43.498;-1.506;2022-10-23T06:17:17;3.55;;;1.98;;
34643;SDS011;26931;43.498;-1.506;2022-10-23T06:19:43;4.30;;;1.98;;
34643;SDS011;26931;43.498;-1.506;2022-10-23T06:22:10;7.75;;;2.10;;
34643;SDS011;26931;43.498;-1.506;2022-10-23T06:24:36;7.40;;;1.65;;
34643;SDS011;26931;43.498;-1.506;2022-10-23T06:27:02;7.22;;;2.08;;
34643;SDS011;26931;43.498;-1.506;2022-10-23T06:29:29;7.95;;;2.22;;
34643;SDS011;26931;43.498;-1.506;2022-10-23T06:31:55;9.60;;;2.47;;
34643;SDS011;26931;43.498;-1.506;2022-10-23T06:34:21;5.53;;;2.20;;
34643;SDS011;26931;43.498;-1.506;2022-10-23T06:36:47;7.32;;;2.30;;
34643;SDS011;26931;43.498;-1.506;2022-10-23T06:39:13;7.65;;;2.05;;
34643;SDS011;26931;43.498;-1.506;2022-10-23T06:41:39;11.70;;;2.20;;
34643;SDS011;26931;43.498;-1.506;2022-10-23T06:44:06;9.70;;;2.45;;
34643;SDS011;26931;43.498;-1.506;2022-10-23T06:46:34;6.10;;;2.20;;
34643;SDS011;26931;43.498;-1.506;2022-10-23T06:49:00;5.20;;;2.15;;
34643;SDS011;26931;43.498;-1.506;2022-10-23T06:51:26;6.15;;;2.00;;
34643;SDS011;26931;43.498;-1.506;2022-10-23T06:53:54;6.13;;;2.17;;
34643;SDS011;26931;43.498;-1.506;2022-10-23T06:56:20;8.98;;;2.00;;
34643;SDS011;26931;43.498;-1.506;2022-10-23T06:58:47;5.70;;;1.90;;
34643;SDS011;26931;43.498;-1.506;2022-10-23T07:01:13;7.28;;;2.13;;
34643;SDS011;26931;43.498;-1.506;2022-10-23T07:03:40;6.40;;;2.00;;
34643;SDS011;26931;43.498;-1.506;2022-10-23T07:06:07;5.68;;;2.00;;
34643;SDS011;26931;43.498;-1.506;2022-10-23T07:08:34;4.90;;;2.53;;
34643;SDS011;26931;43.498;-1.506;2022-10-23T07:11:04;7.50;;;2.33;;
34643;SDS011;26931;43.498;-1.506;2022-10-23T07:13:32;9.93;;;2.67;;
34643;SDS011;26931;43.498;-1.506;2022-10-23T07:16:07;4.55;;;2.17;;
34643;SDS011;26931;43.498;-1.506;2022-10-23T07:18:37;9.27;;;2.58;;
34643;SDS011;26931;43.498;-1.506;2022-10-23T07:21:03;8.63;;;2.50;;
34643;SDS011;26931;43.498;-1.506;2022-10-23T07:23:29;8.57;;;2.35;;
34643;SDS011;26931;43.498;-1.506;2022-10-23T07:25:55;14.13;;;4.00;;
34643;SDS011;26931;43.498;-1.506;2022-10-23T07:28:31;17.67;;;6.25;;
34643;SDS011;26931;43.498;-1.506;2022-10-23T07:30:57;11.77;;;6.72;;
34643;SDS011;26931;43.498;-1.506;2022-10-23T07:33:23;10.77;;;4.90;;
34643;SDS011;26931;43.498;-1.506;2022-10-23T07:35:50;12.30;;;6.00;;
34643;SDS011;26931;43.498;-1.506;2022-10-23T07:38:16;11.50;;;5.45;;
34643;SDS011;26931;43.498;-1.506;2022-10-23T07:40:42;14.63;;;8.18;;
34643;SDS011;26931;43.498;-1.506;2022-10-23T07:43:09;13.85;;;5.20;;
34643;SDS011;26931;43.498;-1.506;2022-10-23T07:45:35;14.00;;;4.80;;
34643;SDS011;26931;43.498;-1.506;2022-10-23T07:48:01;13.35;;;5.90;;
34643;SDS011;26931;43.498;-1.506;2022-10-23T07:50:27;17.60;;;6.03;;
34643;SDS011;26931;43.498;-1.506;2022-10-23T07:52:53;14.68;;;9.52;;
34643;SDS011;26931;43.498;-1.506;2022-10-23T07:55:19;23.10;;;11.85;;
34643;SDS011;26931;43.498;-1.506;2022-10-23T07:57:45;14.57;;;7.13;;
34643;SDS011;26931;43.498;-1.506;2022-10-23T08:00:11;11.75;;;6.65;;
34643;SDS011;26931;43.498;-1.506;2022-10-23T08:02:38;15.82;;;9.35;;
34643;SDS011;26931;43.498;-1.506;2022-10-23T08:05:04;10.75;;;6.50;;
34643;SDS011;26931;43.498;-1.506;2022-10-23T08:07:30;16.77;;;6.82;;
34643;SDS011;26931;43.498;-1.506;2022-10-23T08:09:56;12.18;;;4.63;;
34643;SDS011;26931;43.498;-1.506;2022-10-23T08:12:22;9.60;;;6.38;;
34643;SDS011;26931;43.498;-1.506;2022-10-23T08:14:48;11.13;;;5.00;;
34643;SDS011;26931;43.498;-1.506;2022-10-23T08:17:17;7.90;;;4.43;;
34643;SDS011;26931;43.498;-1.506;2022-10-23T08:19:43;14.38;;;4.72;;
34643;SDS011;26931;43.498;-1.506;2022-10-23T08:22:11;7.25;;;3.85;;
34643;SDS011;26931;43.498;-1.506;2022-10-23T08:24:37;9.98;;;3.72;;
34643;SDS011;26931;43.498;-1.506;2022-10-23T08:27:03;13.68;;;4.13;;
34643;SDS011;26931;43.498;-1.506;2022-10-23T08:29:29;7.55;;;3.10;;
34643;SDS011;26931;43.498;-1.506;2022-10-23T08:31:55;4.75;;;2.50;;
34643;SDS011;26931;43.498;-1.506;2022-10-23T08:34:21;8.75;;;3.20;;
34643;SDS011;26931;43.498;-1.506;2022-10-23T08:36:48;9.43;;;3.15;;
34643;SDS011;26931;43.498;-1.506;2022-10-23T08:39:14;8.40;;;3.00;;
34643;SDS011;26931;43.498;-1.506;2022-10-23T08:41:40;8.30;;;3.63;;
34643;SDS011;26931;43.498;-1.506;2022-10-23T08:44:20;15.75;;;7.90;;
34643;SDS011;26931;43.498;-1.506;2022-10-23T08:49:48;9.02;;;5.78;;
34643;SDS011;26931;43.498;-1.506;2022-10-23T08:55:13;11.73;;;3.92;;
34643;SDS011;26931;43.498;-1.506;2022-10-23T08:58:04;7.43;;;3.92;;
34643;SDS011;26931;43.498;-1.506;2022-10-23T09:00:35;8.75;;;3.47;;
34643;SDS011;26931;43.498;-1.506;2022-10-23T09:03:03;9.18;;;2.90;;
34643;SDS011;26931;43.498;-1.506;2022-10-23T09:05:31;7.40;;;3.00;;
34643;SDS011;26931;43.498;-1.506;2022-10-23T09:14:13;10.88;;;4.75;;
34643;SDS011;26931;43.498;-1.506;2022-10-23T09:22:46;9.93;;;4.03;;
34643;SDS011;26931;43.498;-1.506;2022-10-23T09:25:26;9.18;;;3.97;;
34643;SDS011;26931;43.498;-1.506;2022-10-23T09:27:58;12.98;;;5.18;;
34643;SDS011;26931;43.498;-1.506;2022-10-23T09:30:32;5.07;;;3.13;;
34643;SDS011;26931;43.498;-1.506;2022-10-23T09:33:13;7.93;;;3.15;;
34643;SDS011;26931;43.498;-1.506;2022-10-23T09:36:00;10.80;;;4.93;;
34643;SDS011;26931;43.498;-1.506;2022-10-23T09:43:38;4.28;;;2.72;;
34643;SDS011;26931;43.498;-1.506;2022-10-23T09:46:05;7.13;;;3.08;;
34643;SDS011;26931;43.498;-1.506;2022-10-23T09:48:32;7.50;;;2.90;;
34643;SDS011;26931;43.498;-1.506;2022-10-23T09:51:02;7.53;;;2.67;;
34643;SDS011;26931;43.498;-1.506;2022-10-23T09:53:47;25.70;;;17.13;;
34643;SDS011;26931;43.498;-1.506;2022-10-23T09:58:54;16.13;;;10.98;;
34643;SDS011;26931;43.498;-1.506;2022-10-23T10:01:29;12.98;;;7.68;;
34643;SDS011;26931;43.498;-1.506;2022-10-23T10:03:56;8.00;;;3.97;;
34643;SDS011;26931;43.498;-1.506;2022-10-23T10:06:28;6.03;;;2.92;;
34643;SDS011;26931;43.498;-1.506;2022-10-23T10:08:59;8.15;;;3.25;;
34643;SDS011;26931;43.498;-1.506;2022-10-23T10:16:43;9.65;;;2.83;;
34643;SDS011;26931;43.498;-1.506;2022-10-23T10:27:41;9.60;;;2.80;;
34643;SDS011;26931;43.498;-1.506;2022-10-23T10:30:29;6.68;;;2.70;;
34643;SDS011;26931;43.498;-1.506;2022-10-23T10:33:16;3.72;;;2.80;;
34643;SDS011;26931;43.498;-1.506;2022-10-23T10:36:07;22.52;;;18.30;;
34643;SDS011;26931;43.498;-1.506;2022-10-23T10:38:56;38.30;;;29.08;;
34643;SDS011;26931;43.498;-1.506;2022-10-23T10:41:43;20.13;;;15.85;;
34643;SDS011;26931;43.498;-1.506;2022-10-23T10:47:32;12.82;;;9.55;;
34643;SDS011;26931;43.498;-1.506;2022-10-23T10:50:18;20.77;;;17.60;;
34643;SDS011;26931;43.498;-1.506;2022-10-23T10:53:05;15.15;;;10.70;;
34643;SDS011;26931;43.498;-1.506;2022-10-23T10:55:51;20.77;;;16.08;;
34643;SDS011;26931;43.498;-1.506;2022-10-23T10:58:20;13.35;;;8.48;;
34643;SDS011;26931;43.498;-1.506;2022-10-23T11:00:53;8.05;;;4.80;;
34643;SDS011;26931;43.498;-1.506;2022-10-23T11:03:38;5.85;;;5.18;;
34643;SDS011;26931;43.498;-1.506;2022-10-23T11:06:17;4.13;;;3.03;;
34643;SDS011;26931;43.498;-1.506;2022-10-23T11:08:46;4.25;;;2.70;;
34643;SDS011;26931;43.498;-1.506;2022-10-23T11:11:15;3.85;;;2.35;;
34643;SDS011;26931;43.498;-1.506;2022-10-23T11:13:48;22.25;;;7.07;;
34643;SDS011;26931;43.498;-1.506;2022-10-23T11:19:34;15.20;;;4.85;;
34643;SDS011;26931;43.498;-1.506;2022-10-23T11:22:03;6.70;;;2.47;;
34643;SDS011;26931;43.498;-1.506;2022-10-23T11:27:46;8.88;;;3.28;;
34643;SDS011;26931;43.498;-1.506;2022-10-23T11:30:24;6.57;;;2.88;;
34643;SDS011;26931;43.498;-1.506;2022-10-23T11:35:53;5.63;;;2.30;;
34643;SDS011;26931;43.498;-1.506;2022-10-23T11:38:33;7.43;;;6.15;;
34643;SDS011;26931;43.498;-1.506;2022-10-23T11:41:16;6.03;;;2.83;;
34643;SDS011;26931;43.498;-1.506;2022-10-23T11:43:57;2.38;;;1.92;;
34643;SDS011;26931;43.498;-1.506;2022-10-23T11:46:30;3.38;;;2.22;;
34643;SDS011;26931;43.498;-1.506;2022-10-23T11:48:59;3.90;;;1.58;;
34643;SDS011;26931;43.498;-1.506;2022-10-23T11:51:34;2.47;;;1.60;;
34643;SDS011;26931;43.498;-1.506;2022-10-23T11:56:38;2.33;;;1.50;;
34643;SDS011;26931;43.498;-1.506;2022-10-23T12:01:50;3.75;;;1.20;;
34643;SDS011;26931;43.498;-1.506;2022-10-23T12:04:22;13.90;;;12.25;;
34643;SDS011;26931;43.498;-1.506;2022-10-23T12:07:12;11.60;;;9.45;;
34643;SDS011;26931;43.498;-1.506;2022-10-23T12:09:54;18.60;;;13.57;;
34643;SDS011;26931;43.498;-1.506;2022-10-23T12:12:28;21.38;;;18.13;;
34643;SDS011;26931;43.498;-1.506;2022-10-23T12:15:16;16.40;;;11.63;;
34643;SDS011;26931;43.498;-1.506;2022-10-23T12:17:48;48.17;;;39.10;;
34643;SDS011;26931;43.498;-1.506;2022-10-23T12:20:17;57.83;;;42.35;;
34643;SDS011;26931;43.498;-1.506;2022-10-23T12:25:19;30.23;;;23.75;;
34643;SDS011;26931;43.498;-1.506;2022-10-23T12:39:28;19.63;;;17.13;;
34643;SDS011;26931;43.498;-1.506;2022-10-23T12:42:05;22.88;;;18.85;;
34643;SDS011;26931;43.498;-1.506;2022-10-23T12:44:40;9.63;;;8.43;;
34643;SDS011;26931;43.498;-1.506;2022-10-23T12:47:10;49.85;;;40.75;;
34643;SDS011;26931;43.498;-1.506;2022-10-23T12:49:46;28.40;;;23.90;;
34643;SDS011;26931;43.498;-1.506;2022-10-23T12:52:17;28.90;;;21.58;;
34643;SDS011;26931;43.498;-1.506;2022-10-23T12:54:45;28.60;;;25.50;;
34643;SDS011;26931;43.498;-1.506;2022-10-23T12:59:46;17.00;;;13.75;;
34643;SDS011;26931;43.498;-1.506;2022-10-23T13:02:25;11.55;;;10.30;;
34643;SDS011;26931;43.498;-1.506;2022-10-23T13:04:53;14.68;;;9.32;;
34643;SDS011;26931;43.498;-1.506;2022-10-23T13:07:24;7.60;;;6.88;;
34643;SDS011;26931;43.498;-1.506;2022-10-23T13:09:53;7.47;;;4.80;;
34643;SDS011;26931;43.498;-1.506;2022-10-23T13:12:26;35.03;;;28.10;;
34643;SDS011;26931;43.498;-1.506;2022-10-23T13:20:19;44.20;;;37.47;;
34643;SDS011;26931;43.498;-1.506;2022-10-23T13:22:48;26.73;;;22.30;;
34643;SDS011;26931;43.498;-1.506;2022-10-23T13:25:36;16.13;;;13.82;;
34643;SDS011;26931;43.498;-1.506;2022-10-23T13:30:34;6.93;;;5.85;;
34643;SDS011;26931;43.498;-1.506;2022-10-23T13:35:54;13.37;;;10.67;;
34643;SDS011;26931;43.498;-1.506;2022-10-23T13:38:28;8.45;;;7.35;;
34643;SDS011;26931;43.498;-1.506;2022-10-23T13:40:57;8.35;;;7.00;;
34643;SDS011;26931;43.498;-1.506;2022-10-23T13:43:25;38.50;;;33.47;;
34643;SDS011;26931;43.498;-1.506;2022-10-23T13:45:52;45.35;;;38.75;;
34643;SDS011;26931;43.498;-1.506;2022-10-23T13:48:18;25.48;;;21.60;;
34643;SDS011;26931;43.498;-1.506;2022-10-23T13:50:45;16.58;;;14.45;;
34643;SDS011;26931;43.498;-1.506;2022-10-23T13:53:11;13.35;;;11.38;;
34643;SDS011;26931;43.498;-1.506;2022-10-23T13:55:38;12.75;;;10.63;;
34643;SDS011;26931;43.498;-1.506;2022-10-23T13:58:07;41.38;;;36.45;;
34643;SDS011;26931;43.498;-1.506;2022-10-23T14:00:34;35.38;;;30.50;;
34643;SDS011;26931;43.498;-1.506;2022-10-23T14:03:00;38.63;;;32.75;;
34643;SDS011;26931;43.498;-1.506;2022-10-23T14:05:26;46.00;;;38.47;;
34643;SDS011;26931;43.498;-1.506;2022-10-23T14:07:52;21.48;;;17.05;;
34643;SDS011;26931;43.498;-1.506;2022-10-23T14:10:18;19.05;;;15.68;;
34643;SDS011;26931;43.498;-1.506;2022-10-23T14:12:44;10.45;;;8.40;;
34643;SDS011;26931;43.498;-1.506;2022-10-23T14:15:10;8.07;;;7.07;;
34643;SDS011;26931;43.498;-1.506;2022-10-23T14:17:36;9.43;;;7.78;;
34643;SDS011;26931;43.498;-1.506;2022-10-23T14:20:02;32.88;;;25.67;;
34643;SDS011;26931;43.498;-1.506;2022-10-23T14:22:29;22.63;;;16.73;;
34643;SDS011;26931;43.498;-1.506;2022-10-23T14:24:55;16.83;;;13.90;;
34643;SDS011;26931;43.498;-1.506;2022-10-23T14:27:21;10.77;;;8.55;;
34643;SDS011;26931;43.498;-1.506;2022-10-23T14:29:46;8.88;;;6.80;;
34643;SDS011;26931;43.498;-1.506;2022-10-23T14:32:12;7.50;;;4.07;;
34643;SDS011;26931;43.498;-1.506;2022-10-23T14:34:41;5.18;;;3.42;;
34643;SDS011;26931;43.498;-1.506;2022-10-23T14:37:09;4.38;;;3.53;;
34643;SDS011;26931;43.498;-1.506;2022-10-23T14:39:35;5.68;;;3.67;;
34643;SDS011;26931;43.498;-1.506;2022-10-23T14:42:02;4.93;;;3.08;;
34643;SDS011;26931;43.498;-1.506;2022-10-23T14:44:28;7.15;;;4.40;;
34643;SDS011;26931;43.498;-1.506;2022-10-23T14:46:53;16.48;;;11.75;;
34643;SDS011;26931;43.498;-1.506;2022-10-23T14:49:19;29.98;;;21.25;;
34643;SDS011;26931;43.498;-1.506;2022-10-23T14:51:45;13.80;;;10.15;;
34643;SDS011;26931;43.498;-1.506;2022-10-23T14:54:11;10.13;;;5.20;;
34643;SDS011;26931;43.498;-1.506;2022-10-23T14:56:37;10.55;;;7.50;;
34643;SDS011;26931;43.498;-1.506;2022-10-23T14:59:05;19.30;;;14.57;;
34643;SDS011;26931;43.498;-1.506;2022-10-23T15:01:32;21.65;;;17.73;;
34643;SDS011;26931;43.498;-1.506;2022-10-23T15:04:01;20.35;;;15.65;;
34643;SDS011;26931;43.498;-1.506;2022-10-23T15:06:28;14.75;;;9.60;;
34643;SDS011;26931;43.498;-1.506;2022-10-23T15:08:54;14.95;;;9.98;;
34643;SDS011;26931;43.498;-1.506;2022-10-23T15:11:20;23.70;;;19.25;;
34643;SDS011;26931;43.498;-1.506;2022-10-23T15:13:46;20.67;;;15.18;;
34643;SDS011;26931;43.498;-1.506;2022-10-23T15:16:12;16.88;;;12.63;;
34643;SDS011;26931;43.498;-1.506;2022-10-23T15:18:38;10.80;;;6.72;;
34643;SDS011;26931;43.498;-1.506;2022-10-23T15:21:04;8.82;;;4.15;;
34643;SDS011;26931;43.498;-1.506;2022-10-23T15:23:36;15.23;;;12.02;;
34643;SDS011;26931;43.498;-1.506;2022-10-23T15:26:05;8.43;;;5.82;;
34643;SDS011;26931;43.498;-1.506;2022-10-23T15:28:35;12.57;;;6.38;;
34643;SDS011;26931;43.498;-1.506;2022-10-23T15:31:02;11.38;;;4.63;;
34643;SDS011;26931;43.498;-1.506;2022-10-23T15:33:28;8.38;;;2.90;;
34643;SDS011;26931;43.498;-1.506;2022-10-23T15:35:54;21.65;;;17.95;;
34643;SDS011;26931;43.498;-1.506;2022-10-23T15:38:20;16.00;;;10.30;;
34643;SDS011;26931;43.498;-1.506;2022-10-23T15:40:47;10.05;;;5.65;;
34643;SDS011;26931;43.498;-1.506;2022-10-23T15:43:14;6.13;;;2.90;;
34643;SDS011;26931;43.498;-1.506;2022-10-23T15:45:41;6.93;;;2.38;;
34643;SDS011;26931;43.498;-1.506;2022-10-23T15:48:07;5.57;;;1.90;;
34643;SDS011;26931;43.498;-1.506;2022-10-23T15:50:34;2.97;;;1.50;;
34643;SDS011;26931;43.498;-1.506;2022-10-23T15:53:00;3.10;;;1.70;;
34643;SDS011;26931;43.498;-1.506;2022-10-23T15:55:26;10.45;;;2.35;;
34643;SDS011;26931;43.498;-1.506;2022-10-23T15:57:52;6.85;;;2.70;;
34643;SDS011;26931;43.498;-1.506;2022-10-23T16:00:19;7.88;;;2.60;;
34643;SDS011;26931;43.498;-1.506;2022-10-23T16:02:44;7.20;;;2.50;;
34643;SDS011;26931;43.498;-1.506;2022-10-23T16:05:10;4.18;;;1.85;;
34643;SDS011;26931;43.498;-1.506;2022-10-23T16:07:36;5.72;;;2.20;;
34643;SDS011;26931;43.498;-1.506;2022-10-23T16:10:02;6.07;;;2.05;;
34643;SDS011;26931;43.498;-1.506;2022-10-23T16:12:29;5.43;;;1.90;;
34643;SDS011;26931;43.498;-1.506;2022-10-23T16:14:55;5.88;;;1.70;;
34643;SDS011;26931;43.498;-1.506;2022-10-23T16:17:21;4.53;;;1.65;;
34643;SDS011;26931;43.498;-1.506;2022-10-23T16:19:48;5.70;;;1.60;;
34643;SDS011;26931;43.498;-1.506;2022-10-23T16:22:14;4.75;;;1.60;;
34643;SDS011;26931;43.498;-1.506;2022-10-23T16:24:41;3.95;;;1.50;;
34643;SDS011;26931;43.498;-1.506;2022-10-23T16:27:07;4.30;;;1.63;;
34643;SDS011;26931;43.498;-1.506;2022-10-23T16:29:33;4.75;;;1.60;;
34643;SDS011;26931;43.498;-1.506;2022-10-23T16:31:59;3.65;;;1.77;;
34643;SDS011;26931;43.498;-1.506;2022-10-23T16:34:25;2.92;;;1.58;;
34643;SDS011;26931;43.498;-1.506;2022-10-23T16:36:51;4.82;;;1.58;;